Time;durP1;ratioP1;P1;durP2;ratioP2;P2;SDS_P1;SDS_P2;PMS_P1;PMS_P2;Temp;Humidity;BMP_temperature;BMP_pressure;BME280_temperature;BME280_humidity;BME280_pressure;Samples;Min_cycle;Max_cycle;Signal;HPM_P1;HPM_P2
2021/10/08 00:01:47;;;;;;;15.47;9.90;;;9.00;99.90;;;;;;8360628;28;20175;-78
2021/10/08 00:05:48;;;;;;;17.50;11.57;;;9.00;99.90;;;;;;8336160;28;20641;-78
2021/10/08 00:09:49;;;;;;;18.87;10.80;;;9.00;99.80;;;;;;8369698;28;20186;-78
2021/10/08 00:13:49;;;;;;;22.27;11.70;;;8.90;99.90;;;;;;8369835;28;20645;-79
2021/10/08 00:17:50;;;;;;;19.20;11.67;;;8.90;99.90;;;;;;8355569;28;20207;-78
2021/10/08 00:21:51;;;;;;;15.13;9.27;;;8.90;99.90;;;;;;8374069;28;20199;-78
2021/10/08 00:25:51;;;;;;;16.50;10.37;;;8.90;99.90;;;;;;8352564;28;20183;-77
2021/10/08 00:29:52;;;;;;;16.20;9.47;;;8.90;99.90;;;;;;8355054;28;20226;-77
2021/10/08 00:33:53;;;;;;;16.37;10.80;;;8.90;99.90;;;;;;8360234;28;20187;-78
2021/10/08 00:37:54;;;;;;;18.57;11.00;;;8.90;99.90;;;;;;8357517;28;20272;-77
2021/10/08 00:41:54;;;;;;;17.47;9.87;;;8.90;99.90;;;;;;8358415;28;20198;-77
2021/10/08 00:45:55;;;;;;;15.80;9.27;;;8.80;99.90;;;;;;8358022;28;20438;-79
2021/10/08 00:49:55;;;;;;;12.40;7.30;;;8.90;99.90;;;;;;8340959;28;20250;-79
2021/10/08 00:53:56;;;;;;;19.03;10.10;;;8.80;99.80;;;;;;8359261;28;20170;-78
2021/10/08 00:57:58;;;;;;;21.67;10.90;;;8.80;99.80;;;;;;8365139;28;20226;-79
2021/10/08 01:01:58;;;;;;;18.00;10.40;;;8.80;99.90;;;;;;8339870;28;20694;-78
2021/10/08 01:05:59;;;;;;;20.37;11.10;;;8.70;99.80;;;;;;8365393;28;20436;-77
2021/10/08 01:10:00;;;;;;;16.33;10.60;;;8.70;99.80;;;;;;8341022;28;20658;-78
2021/10/08 01:14:03;;;;;;;20.60;11.37;;;8.70;99.80;;;;;;8348908;28;20181;-78
2021/10/08 01:18:04;;;;;;;23.17;11.43;;;8.60;99.90;;;;;;8357866;28;20182;-78
2021/10/08 01:22:05;;;;;;;25.83;11.67;;;8.60;99.90;;;;;;8356974;28;20449;-78
2021/10/08 01:26:05;;;;;;;17.17;11.07;;;8.50;99.90;;;;;;8340033;28;20892;-78
2021/10/08 01:30:07;;;;;;;24.07;10.57;;;8.50;99.90;;;;;;8340111;28;20232;-78
2021/10/08 01:34:08;;;;;;;19.80;12.17;;;8.50;99.90;;;;;;8366773;28;20175;-77
2021/10/08 01:38:09;;;;;;;15.37;10.37;;;8.50;99.90;;;;;;8324653;28;20429;-77
2021/10/08 01:42:10;;;;;;;17.00;9.87;;;8.50;99.90;;;;;;8355248;28;20179;-77
2021/10/08 01:46:11;;;;;;;16.10;10.27;;;8.40;99.90;;;;;;8359956;28;20178;-77
2021/10/08 01:50:12;;;;;;;27.47;11.80;;;8.40;99.90;;;;;;8362470;28;20417;-78
2021/10/08 01:54:12;;;;;;;15.00;8.80;;;8.40;99.90;;;;;;8360578;28;20172;-78
2021/10/08 01:58:13;;;;;;;20.53;9.57;;;8.40;99.90;;;;;;8366637;28;20434;-77
2021/10/08 02:02:13;;;;;;;15.40;9.37;;;8.30;99.90;;;;;;8367547;28;20190;-77
2021/10/08 02:06:14;;;;;;;12.83;8.33;;;8.30;99.90;;;;;;8381513;28;20183;-78
2021/10/08 02:10:15;;;;;;;12.47;8.77;;;8.30;99.90;;;;;;8355622;28;20274;-78
2021/10/08 02:14:15;;;;;;;16.83;10.17;;;8.30;99.90;;;;;;8336741;28;20517;-78
2021/10/08 02:18:16;;;;;;;12.30;8.37;;;8.20;99.90;;;;;;8356432;28;20260;-78
2021/10/08 02:22:16;;;;;;;14.27;9.23;;;8.20;99.90;;;;;;8356111;28;20175;-78
2021/10/08 02:26:18;;;;;;;18.17;8.30;;;8.20;99.90;;;;;;8357375;28;20182;-78
2021/10/08 02:30:19;;;;;;;14.17;7.50;;;8.20;99.90;;;;;;8343487;28;20227;-79
2021/10/08 02:34:20;;;;;;;14.03;8.00;;;8.10;99.90;;;;;;8342768;28;20564;-77
2021/10/08 02:38:21;;;;;;;15.67;9.17;;;8.10;99.90;;;;;;8348344;28;20183;-78
2021/10/08 02:42:21;;;;;;;13.40;8.70;;;8.10;99.90;;;;;;8353771;28;20768;-79
2021/10/08 02:46:22;;;;;;;14.53;7.80;;;8.00;99.90;;;;;;8335812;28;20441;-78
2021/10/08 02:50:23;;;;;;;10.80;8.03;;;8.10;99.90;;;;;;8353979;28;20169;-79
2021/10/08 02:54:24;;;;;;;18.67;8.63;;;8.00;99.90;;;;;;8368539;28;20236;-79
2021/10/08 02:58:25;;;;;;;16.60;7.97;;;8.00;99.90;;;;;;8336574;28;20217;-78
2021/10/08 03:02:25;;;;;;;14.70;9.53;;;8.00;99.90;;;;;;8354271;28;20181;-79
2021/10/08 03:06:26;;;;;;;13.40;8.50;;;7.90;99.90;;;;;;8371106;28;20429;-79
2021/10/08 03:10:27;;;;;;;16.13;9.77;;;7.90;99.80;;;;;;8358568;28;20172;-78
2021/10/08 03:14:27;;;;;;;12.40;7.80;;;7.90;99.90;;;;;;8370853;28;20210;-78
2021/10/08 03:18:29;;;;;;;13.33;8.40;;;7.90;99.90;;;;;;8354276;28;20176;-78
2021/10/08 03:22:30;;;;;;;11.90;9.47;;;7.90;99.90;;;;;;8335274;28;20317;-78
2021/10/08 03:26:31;;;;;;;13.30;9.03;;;7.90;99.90;;;;;;8353288;28;20427;-78
2021/10/08 03:30:32;;;;;;;17.13;9.80;;;7.90;99.90;;;;;;8334543;28;20480;-78
2021/10/08 03:34:33;;;;;;;15.47;9.17;;;7.90;99.90;;;;;;8351821;28;20278;-77
2021/10/08 03:38:35;;;;;;;17.60;10.33;;;7.90;99.90;;;;;;8365118;28;20178;-79
2021/10/08 03:42:35;;;;;;;14.93;10.00;;;7.90;99.90;;;;;;8332451;28;20427;-79
2021/10/08 03:46:39;;;;;;;18.00;9.53;;;7.90;99.90;;;;;;8350732;28;20419;-79
2021/10/08 03:50:40;;;;;;;16.37;10.50;;;7.90;99.90;;;;;;8333120;28;20170;-79
2021/10/08 03:54:41;;;;;;;19.20;11.10;;;7.80;99.80;;;;;;8366292;28;20541;-79
2021/10/08 03:58:41;;;;;;;19.20;13.40;;;7.80;99.90;;;;;;8333168;28;20426;-79
2021/10/08 04:02:42;;;;;;;22.17;11.50;;;7.70;99.90;;;;;;8354054;28;20238;-78
2021/10/08 04:06:43;;;;;;;17.80;10.83;;;7.70;99.90;;;;;;8368423;28;20191;-78
2021/10/08 04:10:43;;;;;;;11.53;8.87;;;7.70;99.90;;;;;;8369422;28;20178;-79
2021/10/08 04:14:44;;;;;;;16.53;9.87;;;7.70;99.80;;;;;;8339965;28;20207;-78
2021/10/08 04:18:45;;;;;;;12.73;9.30;;;7.60;99.80;;;;;;8358143;28;20189;-78
2021/10/08 04:22:45;;;;;;;16.57;10.27;;;7.60;99.80;;;;;;8339081;28;20230;-79
2021/10/08 04:26:46;;;;;;;13.57;9.20;;;7.50;99.90;;;;;;8368215;28;20183;-78
2021/10/08 04:30:46;;;;;;;17.27;9.73;;;7.50;99.90;;;;;;8367472;28;20234;-79
2021/10/08 04:34:47;;;;;;;15.03;9.37;;;7.50;99.90;;;;;;8335275;28;20533;-78
2021/10/08 04:38:48;;;;;;;12.93;8.40;;;7.50;99.80;;;;;;8335186;28;20181;-78
2021/10/08 04:42:48;;;;;;;18.93;9.73;;;7.50;99.80;;;;;;8355655;28;20712;-78
2021/10/08 04:46:49;;;;;;;13.30;9.33;;;7.40;99.80;;;;;;8357095;28;20186;-77
2021/10/08 04:50:49;;;;;;;15.77;9.77;;;7.40;99.90;;;;;;8338961;28;20187;-77
2021/10/08 04:54:50;;;;;;;14.50;10.40;;;7.40;99.90;;;;;;8372011;28;20208;-78
2021/10/08 04:58:51;;;;;;;18.10;9.60;;;7.40;99.90;;;;;;8367768;28;20191;-78
2021/10/08 05:02:51;;;;;;;14.30;9.30;;;7.40;99.90;;;;;;8352292;28;20173;-79
2021/10/08 05:06:52;;;;;;;18.60;10.43;;;7.40;99.90;;;;;;8333842;28;20176;-79
2021/10/08 05:10:52;;;;;;;18.77;10.47;;;7.40;99.80;;;;;;8340505;28;20251;-79
2021/10/08 05:14:53;;;;;;;20.73;11.23;;;7.40;99.80;;;;;;8341186;28;20321;-77
2021/10/08 05:18:54;;;;;;;14.77;9.40;;;7.40;99.80;;;;;;8362113;28;20187;-77
2021/10/08 05:22:54;;;;;;;18.17;10.23;;;7.40;99.80;;;;;;8379522;28;20188;-76
2021/10/08 05:26:55;;;;;;;19.10;10.70;;;7.40;99.90;;;;;;8368788;28;20188;-77
2021/10/08 05:30:56;;;;;;;14.33;9.27;;;7.40;99.80;;;;;;8343789;28;20330;-80
2021/10/08 05:34:56;;;;;;;18.03;9.70;;;7.40;99.70;;;;;;8352671;28;20517;-78
2021/10/08 05:38:57;;;;;;;19.73;10.90;;;7.30;99.70;;;;;;8335356;28;20185;-80
2021/10/08 05:42:59;;;;;;;25.07;11.40;;;7.30;99.80;;;;;;8354698;28;20172;-79
2021/10/08 05:47:00;;;;;;;20.67;11.70;;;7.30;99.90;;;;;;8332467;28;20445;-78
2021/10/08 05:51:00;;;;;;;24.07;9.87;;;7.40;99.90;;;;;;8336128;28;20557;-78
2021/10/08 05:55:01;;;;;;;19.83;12.07;;;7.40;99.90;;;;;;8363681;28;20543;-80
2021/10/08 05:59:02;;;;;;;20.67;12.37;;;7.40;99.90;;;;;;8355686;28;20177;-78
2021/10/08 06:03:03;;;;;;;19.20;11.00;;;7.40;99.90;;;;;;8354660;28;20230;-77
2021/10/08 06:07:06;;;;;;;17.00;11.17;;;7.50;99.90;;;;;;8340665;28;20219;-78
2021/10/08 06:11:09;;;;;;;21.50;11.53;;;7.50;99.90;;;;;;8352270;28;21106;-77
2021/10/08 06:15:09;;;;;;;18.10;11.60;;;7.50;99.90;;;;;;8382113;28;20491;-79
2021/10/08 06:19:10;;;;;;;23.90;13.10;;;7.50;99.90;;;;;;8386779;28;20437;-78
2021/10/08 06:23:11;;;;;;;18.60;11.40;;;7.60;99.90;;;;;;8398192;28;20189;-78
2021/10/08 06:27:11;;;;;;;18.70;11.97;;;7.60;99.90;;;;;;8384057;28;20532;-79
2021/10/08 06:31:12;;;;;;;23.27;12.90;;;7.70;99.90;;;;;;8375080;28;20224;-79
2021/10/08 06:35:13;;;;;;;16.87;11.33;;;7.70;99.90;;;;;;8351820;28;20207;-78
2021/10/08 06:39:13;;;;;;;21.63;12.63;;;7.80;99.90;;;;;;8362027;28;20203;-79
2021/10/08 06:43:14;;;;;;;22.40;13.50;;;7.90;99.90;;;;;;8390304;28;20197;-77
2021/10/08 06:47:14;;;;;;;28.13;14.57;;;8.00;99.90;;;;;;8379602;28;20193;-78
2021/10/08 06:51:15;;;;;;;29.70;15.33;;;8.10;99.90;;;;;;8350676;28;20190;-78
2021/10/08 06:55:16;;;;;;;21.67;11.50;;;8.30;99.90;;;;;;8365698;28;20211;-78
2021/10/08 06:59:17;;;;;;;21.87;12.80;;;8.70;99.90;;;;;;8362149;28;20451;-78
2021/10/08 07:03:17;;;;;;;32.80;17.67;;;9.30;99.90;;;;;;8355452;28;20259;-78
2021/10/08 07:07:18;;;;;;;30.53;14.67;;;9.70;99.90;;;;;;8348925;28;20209;-79
2021/10/08 07:11:18;;;;;;;22.60;13.00;;;10.10;99.90;;;;;;8360728;28;20217;-77
2021/10/08 07:15:19;;;;;;;28.50;16.20;;;10.40;99.90;;;;;;8395326;28;20222;-77
2021/10/08 07:19:21;;;;;;;21.53;14.70;;;10.70;99.90;;;;;;8352073;28;20543;-78
2021/10/08 07:23:22;;;;;;;18.23;11.33;;;11.00;99.90;;;;;;8352326;28;20215;-79
2021/10/08 07:27:23;;;;;;;17.50;10.63;;;11.20;99.90;;;;;;8347144;28;20442;-79
2021/10/08 07:31:23;;;;;;;20.33;8.60;;;11.40;99.90;;;;;;8365933;28;20234;-78
2021/10/08 07:35:24;;;;;;;18.90;9.70;;;11.50;99.90;;;;;;8382431;28;20218;-79
2021/10/08 07:39:25;;;;;;;16.27;10.80;;;11.60;99.90;;;;;;8402894;28;20186;-77
2021/10/08 07:43:25;;;;;;;16.43;11.13;;;11.80;99.90;;;;;;8398148;28;20191;-78
2021/10/08 07:47:26;;;;;;;22.13;12.33;;;12.10;99.90;;;;;;8371460;28;20258;-78
2021/10/08 07:51:27;;;;;;;23.50;15.83;;;12.40;99.90;;;;;;8340140;28;20183;-77
2021/10/08 07:55:27;;;;;;;37.87;21.23;;;12.80;99.90;;;;;;8348489;28;20211;-77
2021/10/08 07:59:28;;;;;;;35.97;19.07;;;12.90;99.50;;;;;;8357671;28;20181;-77
2021/10/08 08:03:29;;;;;;;46.67;21.83;;;12.90;99.60;;;;;;8372502;28;20191;-77
2021/10/08 08:07:30;;;;;;;29.23;18.33;;;13.10;99.80;;;;;;8371170;28;20214;-77
2021/10/08 08:11:30;;;;;;;26.13;16.90;;;13.50;99.60;;;;;;8348599;28;20188;-78
2021/10/08 08:15:31;;;;;;;19.53;12.50;;;13.80;99.20;;;;;;8346633;28;20209;-77
2021/10/08 08:19:32;;;;;;;19.83;13.97;;;14.10;98.70;;;;;;8342630;28;20429;-78
2021/10/08 08:23:33;;;;;;;25.30;12.50;;;14.50;98.60;;;;;;8355040;28;20563;-78
2021/10/08 08:27:33;;;;;;;25.67;13.63;;;14.90;97.80;;;;;;8349869;28;20193;-78
2021/10/08 08:31:34;;;;;;;25.27;12.70;;;15.20;97.20;;;;;;8389520;28;20325;-78
2021/10/08 08:35:35;;;;;;;19.83;13.73;;;15.20;97.00;;;;;;8366112;28;20742;-79
2021/10/08 08:39:38;;;;;;;20.13;14.73;;;15.60;97.10;;;;;;8380784;28;20213;-77
2021/10/08 08:43:39;;;;;;;20.10;13.10;;;16.10;96.60;;;;;;8387207;28;20230;-78
2021/10/08 08:47:40;;;;;;;24.00;13.17;;;16.50;96.00;;;;;;8365191;28;20461;-77
2021/10/08 08:51:41;;;;;;;25.77;14.00;;;16.70;95.50;;;;;;8370414;28;20183;-79
2021/10/08 08:55:42;;;;;;;18.50;11.63;;;17.00;95.40;;;;;;8400293;28;20553;-78
2021/10/08 09:00:09;;;;;;;16.60;11.07;;;17.30;94.90;;;;;;8384398;28;20526;-78
2021/10/08 09:04:11;;;;;;;19.83;11.07;;;17.60;94.50;;;;;;8370662;28;20191;-78
2021/10/08 09:08:13;;;;;;;19.80;12.70;;;18.00;94.30;;;;;;8390227;28;20563;-78
2021/10/08 09:12:14;;;;;;;15.63;10.50;;;18.40;93.60;;;;;;8369288;28;20517;-79
2021/10/08 09:16:15;;;;;;;12.60;9.67;;;18.90;93.10;;;;;;8364892;28;20460;-78
2021/10/08 09:20:17;;;;;;;10.70;9.10;;;19.20;91.10;;;;;;8374175;28;20434;-78
2021/10/08 09:24:22;;;;;;;8.50;7.53;;;19.60;90.10;;;;;;8380764;28;20188;-79
2021/10/08 09:28:24;;;;;;;10.20;7.27;;;20.10;88.20;;;;;;8382199;28;20433;-78
2021/10/08 09:32:24;;;;;;;10.90;7.47;;;20.80;86.70;;;;;;8374850;28;20464;-77
2021/10/08 09:36:35;;;;;;;17.07;9.70;;;21.40;84.70;;;;;;8379824;28;20219;-77
2021/10/08 09:40:57;;;;;;;11.40;8.20;;;22.30;81.60;;;;;;8357807;28;20217;-78
2021/10/08 09:44:58;;;;;;;12.57;7.83;;;22.80;79.70;;;;;;8354887;28;20463;-78
2021/10/08 09:48:58;;;;;;;10.20;7.43;;;23.10;78.50;;;;;;8363204;28;20465;-79
2021/10/08 09:53:15;;;;;;;9.50;7.53;;;23.30;77.80;;;;;;8407293;28;20281;-77
2021/10/08 09:57:16;;;;;;;39.23;28.30;;;23.80;76.00;;;;;;8388406;28;20216;-78
2021/10/08 10:01:28;;;;;;;8.60;6.90;;;23.60;74.80;;;;;;8346486;28;20517;-77
2021/10/08 10:05:29;;;;;;;8.33;6.73;;;23.40;74.20;;;;;;8416122;28;20170;-77
2021/10/08 10:09:30;;;;;;;70.93;44.13;;;23.50;75.10;;;;;;8389684;28;20437;-77
2021/10/08 10:13:31;;;;;;;40.50;25.77;;;23.80;75.80;;;;;;8387383;28;20183;-76
2021/10/08 10:17:34;;;;;;;381.97;263.23;;;23.90;74.50;;;;;;8399194;28;20203;-76
2021/10/08 10:21:36;;;;;;;12.63;7.83;;;23.90;74.20;;;;;;8367465;28;20798;-78
2021/10/08 10:25:38;;;;;;;8.77;7.97;;;23.80;73.20;;;;;;8374043;28;20504;-77
2021/10/08 10:29:41;;;;;;;20.60;13.43;;;23.70;73.50;;;;;;8370122;28;20461;-77
2021/10/08 10:33:43;;;;;;;26.00;18.13;;;23.20;74.10;;;;;;8352364;28;20516;-77
2021/10/08 10:37:43;;;;;;;7.40;6.70;;;23.00;75.50;;;;;;8351861;28;20464;-77
2021/10/08 10:41:46;;;;;;;6.53;5.90;;;22.90;75.00;;;;;;8369871;28;20413;-77
2021/10/08 10:46:19;;;;;;;7.43;6.60;;;22.80;75.00;;;;;;8353232;28;20197;-77
2021/10/08 10:50:39;;;;;;;10.10;6.57;;;22.60;77.20;;;;;;8351247;28;20426;-77
2021/10/08 10:54:50;;;;;;;9.00;4.70;;;22.60;76.30;;;;;;8350455;28;20453;-77
2021/10/08 10:59:23;;;;;;;4.73;4.23;;;22.80;74.90;;;;;;8367993;28;20398;-77
2021/10/08 11:03:32;;;;;;;6.67;4.37;;;22.70;75.40;;;;;;8368538;28;20421;-77
2021/10/08 11:07:32;;;;;;;3.90;3.37;;;22.60;75.40;;;;;;8367843;28;20446;-77
2021/10/08 11:11:33;;;;;;;5.00;4.60;;;22.80;74.00;;;;;;8368038;28;20422;-76
2021/10/08 11:15:34;;;;;;;6.57;4.60;;;22.90;74.70;;;;;;8368288;28;20195;-76
2021/10/08 11:19:40;;;;;;;8.37;5.30;;;23.00;74.30;;;;;;8368273;28;20273;-76
2021/10/08 11:23:41;;;;;;;11.90;6.10;;;23.00;74.20;;;;;;8367390;28;20456;-75
2021/10/08 11:27:45;;;;;;;10.57;7.30;;;23.00;73.80;;;;;;8367941;28;20524;-75
2021/10/08 11:31:45;;;;;;;9.63;6.03;;;22.80;74.60;;;;;;8368164;28;21015;-75
2021/10/08 11:35:46;;;;;;;8.23;5.40;;;22.90;74.80;;;;;;8348014;28;20458;-76
2021/10/08 11:39:48;;;;;;;27.27;18.80;;;23.10;74.20;;;;;;8364187;28;20175;-76
2021/10/08 11:44:04;;;;;;;56.10;23.10;;;23.00;73.80;;;;;;8347627;28;20643;-76
2021/10/08 11:48:18;;;;;;;6.77;5.57;;;22.90;74.50;;;;;;8364089;28;20406;-77
2021/10/08 11:52:28;;;;;;;7.60;6.83;;;22.80;73.70;;;;;;8365204;28;20406;-76
2021/10/08 11:56:29;;;;;;;9.93;6.50;;;22.40;74.70;;;;;;8364605;28;20442;-76
2021/10/08 12:00:36;;;;;;;9.50;7.43;;;22.20;75.90;;;;;;8365724;28;20476;-77
2021/10/08 12:04:37;;;;;;;9.63;6.60;;;22.20;75.70;;;;;;8347590;28;20407;-77
2021/10/08 12:08:39;;;;;;;8.57;6.47;;;22.30;76.50;;;;;;8367908;28;20434;-77
2021/10/08 12:12:54;;;;;;;19.43;10.97;;;22.30;75.70;;;;;;8367222;28;20194;-77
2021/10/08 12:17:02;;;;;;;12.60;7.10;;;22.20;76.40;;;;;;8369896;28;20523;-77
2021/10/08 12:21:12;;;;;;;8.33;6.30;;;22.10;76.40;;;;;;8374802;28;20409;-77
2021/10/08 12:25:12;;;;;;;9.20;7.20;;;22.00;76.60;;;;;;8368419;28;20415;-78
2021/10/08 12:29:14;;;;;;;13.50;7.17;;;21.80;76.40;;;;;;8357994;28;20481;-77
2021/10/08 12:33:33;;;;;;;6.23;5.63;;;21.90;77.40;;;;;;8328115;28;20680;-77
2021/10/08 12:37:34;;;;;;;9.80;8.10;;;22.10;77.50;;;;;;8351961;28;20472;-77
2021/10/08 12:41:47;;;;;;;11.47;8.63;;;22.50;76.00;;;;;;8368758;28;20424;-76
2021/10/08 12:45:50;;;;;;;15.03;7.67;;;22.60;76.40;;;;;;8369076;28;20187;-77
2021/10/08 12:50:01;;;;;;;10.73;6.80;;;22.80;75.20;;;;;;8369085;28;20579;-77
2021/10/08 12:54:24;;;;;;;7.80;6.20;;;22.80;75.50;;;;;;8348093;28;20461;-76
2021/10/08 12:58:25;;;;;;;8.40;7.07;;;23.00;75.30;;;;;;8367758;28;20516;-77
2021/10/08 13:02:46;;;;;;;7.47;6.13;;;23.20;74.10;;;;;;8388392;28;20421;-76
2021/10/08 13:06:47;;;;;;;7.17;6.50;;;22.80;74.10;;;;;;8352248;28;20668;-78
2021/10/08 13:11:09;;;;;;;10.33;6.70;;;22.40;75.10;;;;;;8336206;28;20401;-77
2021/10/08 13:15:12;;;;;;;5.63;5.13;;;22.00;75.20;;;;;;8338480;28;20202;-77
2021/10/08 13:19:30;;;;;;;8.13;7.03;;;21.70;75.90;;;;;;8352080;28;20875;-77
2021/10/08 13:23:32;;;;;;;6.77;5.70;;;21.20;77.00;;;;;;8349652;28;20443;-77
2021/10/08 13:27:33;;;;;;;6.60;6.00;;;20.90;77.90;;;;;;8342098;28;20450;-77
2021/10/08 13:31:33;;;;;;;7.23;6.50;;;20.60;78.90;;;;;;8334967;28;20477;-77
2021/10/08 13:35:34;;;;;;;6.47;5.67;;;20.60;79.60;;;;;;8351832;28;20216;-78
2021/10/08 13:39:35;;;;;;;8.03;5.63;;;20.90;79.50;;;;;;8356589;28;20203;-77
2021/10/08 13:43:36;;;;;;;12.37;6.23;;;21.40;78.20;;;;;;8361604;28;20703;-77
2021/10/08 13:47:36;;;;;;;8.83;5.70;;;21.70;77.20;;;;;;8346948;28;20434;-77
2021/10/08 13:51:37;;;;;;;10.87;6.00;;;22.10;77.40;;;;;;8353273;28;20592;-77
2021/10/08 13:55:39;;;;;;;12.00;5.50;;;22.40;76.40;;;;;;8340916;28;20207;-77
2021/10/08 13:59:39;;;;;;;8.47;5.70;;;22.70;76.30;;;;;;8341211;28;20188;-77
2021/10/08 14:03:54;;;;;;;8.27;5.13;;;22.90;75.10;;;;;;8368715;28;20491;-77
2021/10/08 14:11:55;;;;;;;12.00;6.10;;;22.10;75.70;;;;;;8377652;28;20411;-78
2021/10/08 14:15:56;;;;;;;9.53;6.50;;;21.50;76.80;;;;;;8366639;28;20290;-77
2021/10/08 14:19:57;;;;;;;6.27;5.70;;;21.20;78.00;;;;;;8400680;28;20201;-77
2021/10/08 14:23:57;;;;;;;7.77;5.50;;;21.00;78.60;;;;;;8369202;28;20255;-76
2021/10/08 14:27:58;;;;;;;9.47;5.20;;;20.80;79.70;;;;;;8366939;28;20197;-77
2021/10/08 14:31:59;;;;;;;10.20;5.10;;;20.60;79.70;;;;;;8331368;28;20731;-76
2021/10/08 14:35:59;;;;;;;9.40;5.67;;;20.40;80.90;;;;;;8367879;28;20202;-77
2021/10/08 14:40:00;;;;;;;6.17;4.93;;;20.40;81.30;;;;;;8364718;28;20201;-77
2021/10/08 14:44:01;;;;;;;8.00;5.43;;;20.50;80.60;;;;;;8399169;28;20245;-78
2021/10/08 14:48:02;;;;;;;4.83;4.43;;;20.80;81.10;;;;;;8358178;28;20446;-78
2021/10/08 14:52:04;;;;;;;6.73;4.83;;;21.20;79.80;;;;;;8373809;28;20271;-78
2021/10/08 14:56:29;;;;;;;5.63;4.73;;;21.60;79.60;;;;;;8356473;28;20315;-79
2021/10/08 15:00:33;;;;;;;9.50;5.37;;;21.90;78.40;;;;;;8346152;28;20419;-83
2021/10/08 15:04:36;;;;;;;6.30;4.80;;;22.10;77.40;;;;;;8346105;28;20426;-77
2021/10/08 15:08:36;;;;;;;10.47;5.40;;;22.30;76.70;;;;;;8347014;28;20441;-78
2021/10/08 15:12:37;;;;;;;4.93;4.53;;;22.30;77.00;;;;;;8334819;28;20831;-77
2021/10/08 15:16:38;;;;;;;5.80;5.23;;;22.30;74.80;;;;;;8354049;28;20206;-77
2021/10/08 15:20:39;;;;;;;5.00;4.17;;;22.00;75.00;;;;;;8378700;28;20212;-78
2021/10/08 15:24:39;;;;;;;7.87;5.43;;;21.70;77.10;;;;;;8356533;28;20436;-77
2021/10/08 15:28:40;;;;;;;7.67;4.53;;;21.40;77.10;;;;;;8365788;28;20190;-77
2021/10/08 15:32:41;;;;;;;7.37;5.53;;;21.10;78.10;;;;;;8354865;28;20186;-77
2021/10/08 15:36:41;;;;;;;12.43;6.07;;;20.90;79.50;;;;;;8376649;28;20207;-77
2021/10/08 15:40:42;;;;;;;7.20;6.00;;;20.70;80.00;;;;;;8369789;28;20307;-77
2021/10/08 15:44:46;;;;;;;5.67;5.27;;;20.50;80.40;;;;;;8360609;28;20255;-78
2021/10/08 15:48:47;;;;;;;6.23;5.73;;;20.30;81.00;;;;;;8341165;28;20186;-77
2021/10/08 15:52:48;;;;;;;9.20;7.07;;;20.10;81.90;;;;;;8317418;28;20810;-76
2021/10/08 15:56:48;;;;;;;8.30;6.13;;;19.90;83.30;;;;;;8333316;28;20656;-77
2021/10/08 16:00:49;;;;;;;8.13;5.53;;;19.80;83.40;;;;;;8315791;28;20211;-77
2021/10/08 16:04:53;;;;;;;6.30;5.70;;;19.80;82.90;;;;;;8333228;28;20214;-76
2021/10/08 16:08:54;;;;;;;7.03;5.37;;;19.70;82.60;;;;;;8332884;28;20184;-77
2021/10/08 16:12:55;;;;;;;7.33;6.67;;;19.50;83.30;;;;;;8314285;28;20988;-76
2021/10/08 16:16:58;;;;;;;7.33;5.40;;;19.40;83.90;;;;;;8331876;28;20203;-76
2021/10/08 16:20:58;;;;;;;5.90;4.63;;;19.30;84.40;;;;;;8332161;28;20180;-79
2021/10/08 16:24:59;;;;;;;6.87;5.33;;;19.10;84.50;;;;;;8346035;28;20465;-76
2021/10/08 16:28:59;;;;;;;8.50;6.33;;;19.00;84.80;;;;;;8348143;28;20575;-76
2021/10/08 16:33:01;;;;;;;6.50;5.90;;;18.80;85.70;;;;;;8382140;28;20183;-77
2021/10/08 16:37:05;;;;;;;9.57;6.70;;;18.60;87.00;;;;;;8362077;28;20240;-77
2021/10/08 16:41:07;;;;;;;6.60;5.90;;;18.40;88.40;;;;;;8367363;28;20430;-76
2021/10/08 16:45:10;;;;;;;8.70;7.23;;;18.20;89.40;;;;;;8365429;28;20901;-77
2021/10/08 16:49:10;;;;;;;8.03;6.70;;;18.00;90.10;;;;;;8349980;28;20433;-77
2021/10/08 16:53:12;;;;;;;10.50;7.20;;;17.70;90.40;;;;;;8372787;28;20442;-79
2021/10/08 16:57:12;;;;;;;11.17;7.50;;;17.50;90.80;;;;;;8341936;28;20670;-77
2021/10/08 17:01:16;;;;;;;7.20;6.37;;;17.30;90.90;;;;;;8365257;28;20424;-78
2021/10/08 17:05:17;;;;;;;7.33;6.23;;;17.10;90.80;;;;;;8365086;28;20190;-78
2021/10/08 17:09:17;;;;;;;9.00;7.10;;;17.00;90.90;;;;;;8355407;28;20772;-77
2021/10/08 17:13:18;;;;;;;9.57;8.30;;;16.90;91.30;;;;;;8339433;28;20247;-79
2021/10/08 17:17:18;;;;;;;15.40;10.63;;;16.70;91.70;;;;;;8350788;28;20207;-78
2021/10/08 17:21:20;;;;;;;13.13;10.93;;;16.60;92.20;;;;;;8354077;28;20212;-77
2021/10/08 17:25:56;;;;;;;16.90;10.50;;;16.40;92.70;;;;;;8348835;28;20237;-78
2021/10/08 17:33:52;;;;;;;15.23;12.57;;;16.10;93.60;;;;;;8374547;28;20453;-77
2021/10/08 17:37:53;;;;;;;13.27;10.13;;;15.90;94.00;;;;;;8352195;28;20467;-78
2021/10/08 17:41:53;;;;;;;16.53;12.20;;;15.80;94.40;;;;;;8383765;28;20434;-78
2021/10/08 17:45:54;;;;;;;15.30;11.80;;;15.70;94.60;;;;;;8404470;28;20203;-78
2021/10/08 17:49:54;;;;;;;18.97;14.00;;;15.50;95.00;;;;;;8367839;28;20195;-78
2021/10/08 17:53:55;;;;;;;17.07;13.30;;;15.40;95.20;;;;;;8392355;28;20175;-81
2021/10/08 17:57:56;;;;;;;22.27;16.07;;;15.30;95.50;;;;;;8392187;28;20211;-81
2021/10/08 18:01:56;;;;;;;20.57;14.63;;;15.20;95.70;;;;;;8355812;28;20224;-77
2021/10/08 18:05:57;;;;;;;22.50;15.33;;;15.10;96.00;;;;;;8359884;28;20195;-81
2021/10/08 18:09:58;;;;;;;19.83;14.77;;;14.90;96.20;;;;;;8357735;28;20185;-80
2021/10/08 18:14:03;;;;;;;22.37;15.70;;;14.90;96.30;;;;;;8374758;28;20774;-82
2021/10/08 18:18:06;;;;;;;22.90;16.20;;;14.70;96.50;;;;;;8381302;28;20195;-80
2021/10/08 18:22:07;;;;;;;19.57;14.43;;;14.60;96.80;;;;;;8353408;28;20434;-79
2021/10/08 18:26:09;;;;;;;21.00;16.07;;;14.50;96.90;;;;;;8381387;28;21196;-81
2021/10/08 18:30:16;;;;;;;19.60;13.60;;;14.50;97.10;;;;;;8392332;28;20235;-81
2021/10/08 18:34:18;;;;;;;21.87;15.53;;;14.50;97.10;;;;;;8365415;28;20437;-79
2021/10/08 18:38:19;;;;;;;28.40;15.90;;;14.40;97.20;;;;;;8340064;28;20477;-79
2021/10/08 18:42:19;;;;;;;21.07;15.43;;;14.30;97.30;;;;;;8369056;28;20449;-80
2021/10/08 18:46:21;;;;;;;23.07;16.37;;;14.30;97.30;;;;;;8384488;28;20479;-78
2021/10/08 18:50:25;;;;;;;17.63;13.93;;;14.20;97.40;;;;;;8376790;28;20436;-80
2021/10/08 18:54:26;;;;;;;20.73;16.30;;;14.10;97.40;;;;;;8349917;28;20439;-80
2021/10/08 18:58:27;;;;;;;24.70;17.37;;;14.10;97.40;;;;;;8366100;28;20492;-81
2021/10/08 19:02:28;;;;;;;23.57;16.97;;;14.00;97.40;;;;;;8345676;28;20182;-78
2021/10/08 19:06:28;;;;;;;24.13;17.70;;;13.90;97.50;;;;;;8356192;28;20445;-82
2021/10/08 19:10:54;;;;;;;24.90;18.70;;;13.80;97.50;;;;;;8370303;28;20195;-79
2021/10/08 19:14:58;;;;;;;26.17;17.70;;;13.70;97.60;;;;;;8379627;28;20208;-79
2021/10/08 19:23:20;;;;;;;24.10;17.20;;;13.50;97.80;;;;;;8373536;28;20768;-78
2021/10/08 19:27:21;;;;;;;20.70;15.00;;;13.40;97.80;;;;;;8360884;28;20966;-78
2021/10/08 19:31:22;;;;;;;20.50;16.00;;;13.40;98.10;;;;;;8365996;28;20476;-79
2021/10/08 19:35:23;;;;;;;19.40;15.70;;;13.30;98.10;;;;;;8358112;28;20218;-79
2021/10/08 19:39:23;;;;;;;25.57;17.27;;;13.20;98.20;;;;;;8341002;28;20225;-78
2021/10/08 19:43:25;;;;;;;24.63;16.07;;;13.10;98.30;;;;;;8350935;28;20439;-79
2021/10/08 19:47:39;;;;;;;25.00;17.50;;;13.10;98.40;;;;;;8374102;28;20675;-78
2021/10/08 19:51:40;;;;;;;25.87;17.47;;;13.00;98.40;;;;;;8378259;28;20455;-79
2021/10/08 19:55:41;;;;;;;25.33;18.77;;;12.90;98.50;;;;;;8373117;28;20468;-79
2021/10/08 19:59:42;;;;;;;27.30;19.10;;;12.90;98.50;;;;;;8359556;28;20216;-78
2021/10/08 20:03:47;;;;;;;23.10;17.30;;;12.80;98.50;;;;;;8381893;28;20444;-78
2021/10/08 20:16:19;;;;;;;28.73;18.70;;;12.60;98.60;;;;;;8390433;28;20538;-77
2021/10/08 20:20:20;;;;;;;30.67;19.60;;;12.50;98.70;;;;;;8381502;28;20443;-80
2021/10/08 20:24:22;;;;;;;29.00;19.97;;;12.50;98.80;;;;;;8383518;28;20442;-77
2021/10/08 20:28:23;;;;;;;28.73;20.87;;;12.40;98.90;;;;;;8408826;28;20434;-78
2021/10/08 20:32:24;;;;;;;29.50;19.17;;;12.30;98.80;;;;;;8362403;28;20427;-78
2021/10/08 20:36:24;;;;;;;35.30;21.73;;;12.30;98.90;;;;;;8350684;28;20236;-78
2021/10/08 20:40:25;;;;;;;37.63;21.07;;;12.30;98.90;;;;;;8303028;28;20772;-78
2021/10/08 20:44:26;;;;;;;27.70;19.50;;;12.20;99.00;;;;;;8312340;28;20186;-78
2021/10/08 20:48:26;;;;;;;35.27;21.70;;;12.20;99.10;;;;;;8349781;28;20226;-79
2021/10/08 20:52:27;;;;;;;33.93;22.43;;;12.10;99.00;;;;;;8333721;28;20188;-79
2021/10/08 20:56:28;;;;;;;30.60;21.43;;;12.00;98.90;;;;;;8321321;28;20216;-79
2021/10/08 21:00:29;;;;;;;33.13;21.33;;;12.00;99.00;;;;;;8352533;28;20536;-78
2021/10/08 21:04:30;;;;;;;34.33;20.47;;;12.00;99.10;;;;;;8318691;28;20239;-77
2021/10/08 21:08:30;;;;;;;37.20;21.70;;;11.90;99.20;;;;;;8317096;28;20497;-79